Time;durP1;ratioP1;P1;durP2;ratioP2;P2;SDS_P1;SDS_P2;PMS_P1;PMS_P2;Temp;Humidity;BMP_temperature;BMP_pressure;BME280_temperature;BME280_humidity;BME280_pressure;Samples;Min_cycle;Max_cycle;Signal;HPM_P1;HPM_P2
2023/06/02 00:00:06;;;;;;;23.23;4.05;;;10.90;99.90;;;;;;5062082;28;20021;-70
2023/06/02 00:02:33;;;;;;;20.65;4.20;;;10.90;99.90;;;;;;5062632;28;20080;-72
2023/06/02 00:05:01;;;;;;;22.52;4.20;;;10.90;99.90;;;;;;5062662;28;20032;-72
2023/06/02 00:07:27;;;;;;;22.27;3.80;;;10.90;99.90;;;;;;5059389;28;20033;-70
2023/06/02 00:09:52;;;;;;;25.77;4.35;;;10.90;99.90;;;;;;5059568;28;20492;-70
2023/06/02 00:12:18;;;;;;;22.40;4.22;;;10.90;99.90;;;;;;5060446;28;20473;-71
2023/06/02 00:14:44;;;;;;;22.52;4.03;;;10.90;99.90;;;;;;5062043;28;20032;-71
2023/06/02 00:17:10;;;;;;;30.02;4.32;;;10.90;99.90;;;;;;5061521;28;20024;-70
2023/06/02 00:19:37;;;;;;;28.30;6.15;;;10.90;99.90;;;;;;5060615;28;20033;-71
2023/06/02 00:22:05;;;;;;;20.02;3.47;;;11.00;99.90;;;;;;5061601;28;20044;-69
2023/06/02 00:24:31;;;;;;;27.05;4.45;;;11.00;99.90;;;;;;5060971;28;20557;-70
2023/06/02 00:26:57;;;;;;;26.67;4.53;;;11.00;99.90;;;;;;5061698;28;20029;-72
2023/06/02 00:29:23;;;;;;;19.40;3.55;;;11.00;99.90;;;;;;5061751;28;20058;-69
2023/06/02 00:31:48;;;;;;;23.00;4.07;;;11.00;99.90;;;;;;5060217;28;20040;-72
2023/06/02 00:34:14;;;;;;;23.13;5.35;;;11.00;99.90;;;;;;5061581;28;20017;-71
2023/06/02 00:36:40;;;;;;;26.42;4.82;;;11.00;99.90;;;;;;5060588;28;20029;-72
2023/06/02 00:39:06;;;;;;;28.27;4.90;;;11.00;99.90;;;;;;5060864;28;20078;-70
2023/06/02 00:41:31;;;;;;;23.77;4.75;;;11.00;99.90;;;;;;5059638;28;20474;-71
2023/06/02 00:43:57;;;;;;;23.80;4.40;;;11.00;99.90;;;;;;5061169;28;20068;-71
2023/06/02 00:46:23;;;;;;;25.92;4.93;;;11.10;99.90;;;;;;5060916;28;20040;-72
2023/06/02 00:48:49;;;;;;;31.08;5.07;;;11.10;99.90;;;;;;5061321;28;20426;-70
2023/06/02 00:51:18;;;;;;;30.00;4.68;;;11.00;99.90;;;;;;5060650;28;20037;-71
2023/06/02 00:53:45;;;;;;;30.55;4.90;;;11.10;99.90;;;;;;5060993;28;20036;-71
2023/06/02 00:56:13;;;;;;;31.48;4.57;;;11.00;99.90;;;;;;5058944;28;20466;-71
2023/06/02 00:58:41;;;;;;;29.90;4.75;;;11.10;99.90;;;;;;5060079;28;20025;-72
2023/06/02 01:01:11;;;;;;;19.30;4.10;;;11.10;99.90;;;;;;5060355;28;20029;-72
2023/06/02 01:03:39;;;;;;;27.73;4.28;;;11.00;99.90;;;;;;5059153;28;20017;-72
2023/06/02 01:06:05;;;;;;;27.25;4.50;;;11.10;99.90;;;;;;5060553;28;20021;-71
2023/06/02 01:08:33;;;;;;;20.00;4.68;;;11.10;99.90;;;;;;5058974;28;20063;-72
2023/06/02 01:10:59;;;;;;;21.50;4.00;;;11.10;99.90;;;;;;5059481;28;20024;-71
2023/06/02 01:13:25;;;;;;;24.15;4.78;;;11.10;99.90;;;;;;5060596;28;20032;-73
2023/06/02 01:15:50;;;;;;;23.20;4.70;;;11.10;99.90;;;;;;5060905;28;20182;-73
2023/06/02 01:18:25;;;;;;;30.23;4.53;;;11.20;99.90;;;;;;5060995;28;20025;-72
2023/06/02 01:20:57;;;;;;;23.80;4.70;;;11.20;99.90;;;;;;5059385;28;20032;-72
2023/06/02 01:23:28;;;;;;;33.10;5.03;;;11.20;99.90;;;;;;5060827;28;20018;-73
2023/06/02 01:25:54;;;;;;;24.50;4.40;;;11.10;99.90;;;;;;5061104;28;20068;-71
2023/06/02 01:28:20;;;;;;;19.38;4.43;;;11.10;99.90;;;;;;5059736;28;20020;-72
2023/06/02 01:30:49;;;;;;;17.38;3.83;;;11.10;99.90;;;;;;5061692;28;20025;-72
2023/06/02 01:33:21;;;;;;;28.25;4.93;;;11.10;99.90;;;;;;5060839;28;20033;-73
2023/06/02 01:35:59;;;;;;;29.25;4.78;;;11.10;99.90;;;;;;5059694;28;20033;-70
2023/06/02 01:38:28;;;;;;;27.98;4.75;;;11.00;99.90;;;;;;5061176;28;20040;-72
2023/06/02 01:41:00;;;;;;;27.58;5.72;;;11.00;99.90;;;;;;5060716;28;20047;-71
2023/06/02 01:43:27;;;;;;;31.13;4.82;;;11.00;99.90;;;;;;5059913;28;20448;-71
2023/06/02 01:45:54;;;;;;;21.85;5.05;;;11.00;99.90;;;;;;5059819;28;20060;-72
2023/06/02 01:48:20;;;;;;;30.77;4.93;;;10.90;99.90;;;;;;5060940;28;20033;-72
2023/06/02 01:50:45;;;;;;;28.98;4.57;;;10.90;99.90;;;;;;5060537;28;20045;-72
2023/06/02 01:53:11;;;;;;;29.42;5.30;;;10.90;99.90;;;;;;5059853;28;20075;-70
2023/06/02 01:55:37;;;;;;;22.35;5.28;;;10.90;99.90;;;;;;5060749;28;20033;-72
2023/06/02 01:58:03;;;;;;;20.67;4.60;;;10.90;99.90;;;;;;5060282;28;20028;-71
2023/06/02 02:00:29;;;;;;;22.20;4.65;;;10.90;99.90;;;;;;5060970;28;20084;-71
2023/06/02 02:02:54;;;;;;;27.00;5.45;;;11.00;99.90;;;;;;5060286;28;20080;-70
2023/06/02 02:05:21;;;;;;;20.15;4.15;;;11.00;99.90;;;;;;5061308;28;20094;-71
2023/06/02 02:07:47;;;;;;;28.55;4.88;;;11.00;99.90;;;;;;5058838;28;20032;-71
2023/06/02 02:10:14;;;;;;;18.58;4.90;;;11.00;99.90;;;;;;5060317;28;20017;-71
2023/06/02 02:12:40;;;;;;;27.75;5.07;;;10.90;99.90;;;;;;5061100;28;20021;-72
2023/06/02 02:15:10;;;;;;;25.17;5.30;;;10.90;99.90;;;;;;5062883;28;20048;-72
2023/06/02 02:17:44;;;;;;;28.00;4.80;;;11.00;99.90;;;;;;5063033;28;20041;-71
2023/06/02 02:20:11;;;;;;;28.42;4.88;;;11.00;99.90;;;;;;5064989;28;20131;-71
2023/06/02 02:22:36;;;;;;;19.42;4.30;;;10.90;99.90;;;;;;5064444;28;20029;-71
2023/06/02 02:25:02;;;;;;;29.45;5.03;;;10.90;99.90;;;;;;5064416;28;20043;-71
2023/06/02 02:27:28;;;;;;;24.77;4.38;;;11.00;99.90;;;;;;5064665;28;20055;-72
2023/06/02 02:29:54;;;;;;;28.40;5.43;;;11.00;99.90;;;;;;5064563;28;20020;-71
2023/06/02 02:32:20;;;;;;;26.27;5.20;;;10.90;99.90;;;;;;5064721;28;20021;-73
2023/06/02 02:34:46;;;;;;;22.38;4.53;;;11.00;99.90;;;;;;5064257;28;20036;-72
2023/06/02 02:37:13;;;;;;;24.23;4.45;;;10.90;99.90;;;;;;5064068;28;20040;-70
2023/06/02 02:39:39;;;;;;;25.77;4.38;;;11.00;99.90;;;;;;5064042;28;20025;-72
2023/06/02 02:42:05;;;;;;;28.90;4.70;;;10.90;99.90;;;;;;5063515;28;20076;-73
2023/06/02 02:44:30;;;;;;;24.75;4.93;;;10.90;99.90;;;;;;5063532;28;20114;-71
2023/06/02 02:46:58;;;;;;;30.58;4.15;;;10.90;99.90;;;;;;5063897;28;20067;-72
2023/06/02 02:49:24;;;;;;;27.27;5.20;;;10.90;99.90;;;;;;5063783;28;20013;-71
2023/06/02 02:51:49;;;;;;;17.92;4.43;;;10.90;99.90;;;;;;5063831;28;20157;-70
2023/06/02 02:54:18;;;;;;;27.38;5.07;;;10.90;99.90;;;;;;5064063;28;20084;-71
2023/06/02 02:56:44;;;;;;;26.25;4.72;;;10.90;99.90;;;;;;5064162;28;20075;-72
2023/06/02 02:59:12;;;;;;;29.42;5.25;;;10.80;99.90;;;;;;5063384;28;20064;-71
2023/06/02 03:01:43;;;;;;;18.65;4.70;;;10.90;99.90;;;;;;5063022;28;20020;-73
2023/06/02 03:04:10;;;;;;;25.67;4.57;;;10.80;99.90;;;;;;5063692;28;20386;-71
2023/06/02 03:06:40;;;;;;;29.73;5.00;;;10.80;99.90;;;;;;5061864;28;20043;-71
2023/06/02 03:09:09;;;;;;;32.15;5.20;;;10.80;99.90;;;;;;5062923;28;20013;-71
2023/06/02 03:11:35;;;;;;;25.70;4.53;;;10.80;99.90;;;;;;5061944;28;20504;-71
2023/06/02 03:14:00;;;;;;;25.70;4.82;;;10.80;99.90;;;;;;5063076;28;20040;-72
2023/06/02 03:16:28;;;;;;;24.40;4.72;;;10.70;99.90;;;;;;5063578;28;20021;-74
2023/06/02 03:18:54;;;;;;;33.75;5.32;;;10.70;99.90;;;;;;5063635;28;20096;-73
2023/06/02 03:21:21;;;;;;;30.08;5.20;;;10.80;99.90;;;;;;5062111;28;20048;-70
2023/06/02 03:23:46;;;;;;;21.10;4.55;;;10.80;99.90;;;;;;5062020;28;20052;-71
2023/06/02 03:26:12;;;;;;;37.50;5.30;;;10.80;99.90;;;;;;5060820;28;20386;-72
2023/06/02 03:28:39;;;;;;;34.03;5.18;;;10.70;99.90;;;;;;5061511;28;20485;-71
2023/06/02 03:31:05;;;;;;;32.75;5.03;;;10.80;99.90;;;;;;5062047;28;20084;-72
2023/06/02 03:33:30;;;;;;;26.60;4.72;;;10.80;99.90;;;;;;5063099;28;20056;-72
2023/06/02 03:35:56;;;;;;;28.17;6.65;;;10.80;99.90;;;;;;5061489;28;20067;-71
2023/06/02 03:38:21;;;;;;;23.70;4.93;;;10.80;99.90;;;;;;5062301;28;20029;-73
2023/06/02 03:40:48;;;;;;;28.63;4.72;;;10.80;99.90;;;;;;5062774;28;20047;-72
2023/06/02 03:43:13;;;;;;;26.83;5.80;;;10.80;99.90;;;;;;5063228;28;20444;-71
2023/06/02 03:45:39;;;;;;;23.25;4.82;;;10.80;99.90;;;;;;5063521;28;20036;-71
2023/06/02 03:48:05;;;;;;;35.50;5.38;;;10.80;99.90;;;;;;5063024;28;20096;-71
2023/06/02 03:50:30;;;;;;;22.33;5.28;;;10.80;99.90;;;;;;5062840;28;20024;-73
2023/06/02 03:52:56;;;;;;;39.00;5.45;;;10.80;99.90;;;;;;5063349;28;20447;-72
2023/06/02 03:55:22;;;;;;;30.20;5.38;;;10.80;99.90;;;;;;5063297;28;20040;-73
2023/06/02 03:57:47;;;;;;;33.03;5.28;;;10.90;99.90;;;;;;5062937;28;20363;-71
2023/06/02 04:00:13;;;;;;;28.30;5.20;;;10.80;99.90;;;;;;5062745;28;20021;-70
2023/06/02 04:02:39;;;;;;;32.53;5.22;;;10.80;99.90;;;;;;5059948;28;20029;-71
2023/06/02 04:05:05;;;;;;;31.95;5.38;;;10.80;99.90;;;;;;5062391;28;20482;-70
2023/06/02 04:07:31;;;;;;;29.15;5.68;;;10.80;99.90;;;;;;5062469;28;20454;-70
2023/06/02 04:09:56;;;;;;;27.23;4.93;;;10.80;99.90;;;;;;5061855;28;20045;-71
2023/06/02 04:12:22;;;;;;;32.88;5.63;;;10.80;99.90;;;;;;5060910;28;20028;-71
2023/06/02 04:14:47;;;;;;;31.98;5.40;;;10.80;99.90;;;;;;5061999;28;20032;-71
2023/06/02 04:17:13;;;;;;;34.95;5.75;;;10.70;99.90;;;;;;5062909;28;20021;-70
2023/06/02 04:19:38;;;;;;;30.45;5.05;;;10.80;99.90;;;;;;5062839;28;20800;-71
2023/06/02 04:22:05;;;;;;;30.25;5.28;;;10.70;99.90;;;;;;5060780;28;20021;-73
2023/06/02 04:24:30;;;;;;;27.77;5.15;;;10.70;99.90;;;;;;5062319;28;20036;-71
2023/06/02 04:26:56;;;;;;;35.22;5.97;;;10.70;99.90;;;;;;5062667;28;20035;-71
2023/06/02 04:29:22;;;;;;;32.55;5.53;;;10.70;99.90;;;;;;5060962;28;20037;-70
2023/06/02 04:31:48;;;;;;;39.88;6.47;;;10.70;99.90;;;;;;5062003;28;20017;-70
2023/06/02 04:34:14;;;;;;;36.10;5.85;;;10.70;99.90;;;;;;5062420;28;20032;-69
2023/06/02 04:36:41;;;;;;;29.52;5.88;;;10.70;99.90;;;;;;5060164;28;20032;-71
2023/06/02 04:39:07;;;;;;;31.70;6.03;;;10.70;99.90;;;;;;5061516;28;20052;-71
2023/06/02 04:41:33;;;;;;;26.17;5.13;;;10.70;99.90;;;;;;5061631;28;20044;-70
2023/06/02 04:44:00;;;;;;;34.28;6.28;;;10.80;99.90;;;;;;5061699;28;20041;-70
2023/06/02 04:46:28;;;;;;;35.17;5.45;;;10.80;99.90;;;;;;5060062;28;20124;-71
2023/06/02 04:48:54;;;;;;;35.47;6.57;;;10.80;99.90;;;;;;5061275;28;20025;-73
2023/06/02 04:51:27;;;;;;;28.90;5.97;;;10.90;99.90;;;;;;5060825;28;20053;-70
2023/06/02 04:53:53;;;;;;;30.15;6.35;;;10.90;99.90;;;;;;5061750;28;20044;-72
2023/06/02 04:56:18;;;;;;;34.15;5.90;;;11.00;99.90;;;;;;5061701;28;20013;-71
2023/06/02 04:58:44;;;;;;;46.28;8.57;;;11.00;99.90;;;;;;5060090;28;20025;-70
2023/06/02 05:01:09;;;;;;;39.72;6.63;;;11.00;99.90;;;;;;5061397;28;20055;-72
2023/06/02 05:03:35;;;;;;;32.53;6.53;;;11.00;99.90;;;;;;5059616;28;20080;-71
2023/06/02 05:06:02;;;;;;;30.02;6.82;;;11.00;99.90;;;;;;5059113;28;20028;-71
2023/06/02 05:08:27;;;;;;;36.42;6.75;;;11.00;99.90;;;;;;5058999;28;20025;-71
2023/06/02 05:10:53;;;;;;;43.83;7.00;;;11.00;99.90;;;;;;5061740;28;20029;-70
2023/06/02 05:13:19;;;;;;;40.25;7.00;;;11.00;99.90;;;;;;5059282;28;20036;-72
2023/06/02 05:15:44;;;;;;;29.15;6.43;;;11.10;99.90;;;;;;5061338;28;20025;-70
2023/06/02 05:18:14;;;;;;;32.10;7.18;;;11.20;99.90;;;;;;5060863;28;20025;-71
2023/06/02 05:20:41;;;;;;;39.47;8.20;;;11.30;99.90;;;;;;5059766;28;20033;-69
2023/06/02 05:23:07;;;;;;;46.58;8.02;;;11.40;99.90;;;;;;5060524;28;20029;-71
2023/06/02 05:25:32;;;;;;;39.50;7.20;;;11.40;99.90;;;;;;5058760;28;20045;-70
2023/06/02 05:27:58;;;;;;;41.35;7.38;;;11.50;99.90;;;;;;5060988;28;20031;-70
2023/06/02 05:30:23;;;;;;;32.63;7.18;;;11.60;99.90;;;;;;5060356;28;20041;-70
2023/06/02 05:32:49;;;;;;;44.25;7.57;;;11.70;99.90;;;;;;5060806;28;20025;-70
2023/06/02 05:35:14;;;;;;;34.45;7.90;;;11.70;99.90;;;;;;5060736;28;20040;-70
2023/06/02 05:37:42;;;;;;;39.63;7.20;;;11.80;99.90;;;;;;5060334;28;20017;-67
2023/06/02 05:40:08;;;;;;;40.08;7.15;;;11.90;99.90;;;;;;5060326;28;20043;-69
2023/06/02 05:42:34;;;;;;;44.17;7.90;;;11.90;99.90;;;;;;5059698;28;20025;-67
2023/06/02 05:45:02;;;;;;;44.13;8.45;;;11.90;99.90;;;;;;5060038;28;20056;-68
2023/06/02 05:47:30;;;;;;;38.78;7.53;;;11.90;99.90;;;;;;5058331;28;20025;-68
2023/06/02 05:49:55;;;;;;;44.97;8.02;;;12.00;99.90;;;;;;5060201;28;20036;-68
2023/06/02 05:52:21;;;;;;;51.22;8.20;;;12.00;99.90;;;;;;5059847;28;20053;-68
2023/06/02 05:54:46;;;;;;;34.20;7.65;;;12.10;99.90;;;;;;5062454;28;20055;-69
2023/06/02 05:57:12;;;;;;;40.90;7.93;;;12.10;99.90;;;;;;5063034;28;20041;-69
2023/06/02 05:59:39;;;;;;;34.03;7.80;;;12.10;99.90;;;;;;5064322;28;20036;-68
2023/06/02 06:02:06;;;;;;;38.20;7.40;;;12.20;99.90;;;;;;5062826;28;20028;-70
2023/06/02 06:04:31;;;;;;;36.55;7.43;;;12.20;99.90;;;;;;5064772;28;20104;-68
2023/06/02 06:06:58;;;;;;;37.72;6.97;;;12.30;99.90;;;;;;5064217;28;20071;-70
2023/06/02 06:09:24;;;;;;;35.50;6.95;;;12.30;99.90;;;;;;5062347;28;20032;-71
2023/06/02 06:11:49;;;;;;;43.63;7.35;;;12.40;99.90;;;;;;5063772;28;20033;-70
2023/06/02 06:14:15;;;;;;;32.80;6.63;;;12.40;99.90;;;;;;5064588;28;20029;-70
2023/06/02 06:16:41;;;;;;;32.65;6.10;;;12.40;99.90;;;;;;5064069;28;20021;-71
2023/06/02 06:19:07;;;;;;;35.90;6.20;;;12.50;99.90;;;;;;5063755;28;20028;-70
2023/06/02 06:21:32;;;;;;;37.28;5.95;;;12.60;99.90;;;;;;5064522;28;20096;-70
2023/06/02 06:23:58;;;;;;;32.17;6.53;;;12.60;99.90;;;;;;5064537;28;20041;-70
2023/06/02 06:26:23;;;;;;;33.58;5.68;;;12.70;99.90;;;;;;5064305;28;20028;-70
2023/06/02 06:28:49;;;;;;;45.45;6.95;;;12.70;99.90;;;;;;5065003;28;20027;-71
2023/06/02 06:31:15;;;;;;;29.95;5.20;;;12.80;99.90;;;;;;5062574;28;20027;-70
2023/06/02 06:33:40;;;;;;;30.40;5.30;;;12.80;99.90;;;;;;5064483;28;20025;-71
2023/06/02 06:36:06;;;;;;;31.85;5.47;;;12.90;99.90;;;;;;5064404;28;20059;-71
2023/06/02 06:38:31;;;;;;;15.82;4.45;;;13.10;99.90;;;;;;5063697;28;20021;-71
2023/06/02 06:40:57;;;;;;;23.80;4.60;;;13.20;99.90;;;;;;5064104;28;20052;-70
2023/06/02 06:43:23;;;;;;;18.30;4.05;;;13.20;99.90;;;;;;5064232;28;20021;-72
2023/06/02 06:45:48;;;;;;;22.63;3.88;;;13.30;99.90;;;;;;5063501;28;20045;-70
2023/06/02 06:48:14;;;;;;;21.42;4.03;;;13.40;99.90;;;;;;5063944;28;20051;-71
2023/06/02 06:50:39;;;;;;;19.90;3.90;;;13.50;99.90;;;;;;5061538;28;20478;-69
2023/06/02 06:53:05;;;;;;;16.10;3.40;;;13.60;99.90;;;;;;5063750;28;20044;-71
2023/06/02 06:55:31;;;;;;;16.90;3.72;;;13.70;99.90;;;;;;5062092;28;20135;-72
2023/06/02 06:57:57;;;;;;;15.48;4.57;;;13.70;99.90;;;;;;5062199;28;20048;-73
2023/06/02 07:00:23;;;;;;;22.52;3.80;;;13.80;99.90;;;;;;5061393;28;20037;-69
2023/06/02 07:02:48;;;;;;;20.02;3.83;;;13.80;99.90;;;;;;5062356;28;20020;-68
2023/06/02 07:05:15;;;;;;;19.42;3.25;;;13.90;99.90;;;;;;5062757;28;20045;-68
2023/06/02 07:07:41;;;;;;;16.77;3.50;;;13.90;99.90;;;;;;5062039;28;20032;-69
2023/06/02 07:10:07;;;;;;;20.65;3.40;;;13.90;99.90;;;;;;5061767;28;20031;-69
2023/06/02 07:12:34;;;;;;;18.05;3.30;;;14.00;99.90;;;;;;5062054;28;20036;-69
2023/06/02 07:15:00;;;;;;;14.88;2.95;;;14.00;99.90;;;;;;5060860;28;20094;-68
2023/06/02 07:17:26;;;;;;;17.48;3.20;;;14.10;99.90;;;;;;5062943;28;20029;-70
2023/06/02 07:19:51;;;;;;;17.30;3.10;;;14.20;99.90;;;;;;5062551;28;20482;-71
2023/06/02 07:22:17;;;;;;;18.50;3.22;;;14.20;99.90;;;;;;5062086;28;20039;-69
2023/06/02 07:24:43;;;;;;;16.33;3.20;;;14.30;99.90;;;;;;5061272;28;20041;-69
2023/06/02 07:27:09;;;;;;;15.43;3.30;;;14.40;99.90;;;;;;5062156;28;20035;-69
2023/06/02 07:29:35;;;;;;;14.88;2.85;;;14.50;99.90;;;;;;5061149;28;20106;-70
2023/06/02 07:32:00;;;;;;;13.70;2.83;;;14.60;99.90;;;;;;5061354;28;20397;-71
2023/06/02 07:34:26;;;;;;;15.57;2.70;;;14.70;99.90;;;;;;5062078;28;20021;-71
2023/06/02 07:36:52;;;;;;;8.63;2.33;;;14.80;99.90;;;;;;5062968;28;20029;-69
2023/06/02 07:39:18;;;;;;;16.02;2.80;;;14.90;99.90;;;;;;5062299;28;20025;-70
2023/06/02 07:41:44;;;;;;;11.23;2.50;;;14.90;99.90;;;;;;5060501;28;20033;-69
2023/06/02 07:44:09;;;;;;;10.85;2.20;;;15.00;99.90;;;;;;5059394;28;21277;-70
2023/06/02 07:46:37;;;;;;;8.15;2.47;;;15.00;99.90;;;;;;5058572;28;20098;-69
2023/06/02 07:49:02;;;;;;;19.20;2.30;;;15.10;99.90;;;;;;5062064;28;20025;-69
2023/06/02 07:51:28;;;;;;;13.02;2.38;;;15.10;99.90;;;;;;5060539;28;20045;-70
2023/06/02 07:53:53;;;;;;;6.82;1.80;;;15.20;99.90;;;;;;5060457;28;20139;-69
2023/06/02 07:56:19;;;;;;;7.45;1.92;;;15.30;99.90;;;;;;5057073;28;20304;-70
2023/06/02 07:58:45;;;;;;;10.00;2.35;;;15.30;99.90;;;;;;5061797;28;20055;-70
2023/06/02 08:01:11;;;;;;;9.07;2.58;;;15.30;99.90;;;;;;5061809;28;20052;-70
2023/06/02 08:03:36;;;;;;;9.85;2.38;;;15.20;99.90;;;;;;5061346;28;20025;-69
2023/06/02 08:06:02;;;;;;;11.05;2.17;;;15.20;99.90;;;;;;5062380;28;20461;-69
2023/06/02 08:08:28;;;;;;;12.40;2.28;;;15.20;99.90;;;;;;5061848;28;20044;-70
2023/06/02 08:10:56;;;;;;;10.88;2.42;;;15.30;99.90;;;;;;5060789;28;20108;-71
2023/06/02 08:13:22;;;;;;;13.60;2.30;;;15.40;99.90;;;;;;5060373;28;20029;-71
2023/06/02 08:15:48;;;;;;;17.02;3.03;;;15.70;99.90;;;;;;5061758;28;20361;-71
2023/06/02 08:18:15;;;;;;;11.15;2.65;;;15.90;99.90;;;;;;5061050;28;20037;-69
2023/06/02 08:20:42;;;;;;;11.23;3.20;;;16.00;99.90;;;;;;5060970;28;20033;-69
2023/06/02 08:23:08;;;;;;;14.85;3.17;;;16.10;99.90;;;;;;5061532;28;20048;-70
2023/06/02 08:25:37;;;;;;;13.27;2.92;;;16.10;99.90;;;;;;5061720;28;20040;-70
2023/06/02 08:28:06;;;;;;;14.35;3.30;;;16.00;99.90;;;;;;5061468;28;20025;-69
2023/06/02 08:30:36;;;;;;;14.50;3.67;;;16.10;99.90;;;;;;5061357;28;20037;-69
2023/06/02 08:33:03;;;;;;;15.23;4.63;;;16.10;99.90;;;;;;5058868;28;20872;-69
2023/06/02 08:35:36;;;;;;;16.90;3.72;;;16.00;99.90;;;;;;5058672;28;20021;-70
2023/06/02 08:38:03;;;;;;;12.50;3.47;;;16.10;99.90;;;;;;5058598;28;20055;-69
2023/06/02 08:40:36;;;;;;;11.18;2.92;;;16.10;99.90;;;;;;5059011;28;20027;-71
2023/06/02 08:43:06;;;;;;;12.20;3.67;;;16.00;99.90;;;;;;5059673;28;20039;-70
2023/06/02 08:45:32;;;;;;;7.85;2.75;;;16.10;99.90;;;;;;5060827;28;20037;-69
2023/06/02 08:47:58;;;;;;;6.70;2.80;;;16.20;99.90;;;;;;5061189;28;20045;-70
2023/06/02 08:50:31;;;;;;;9.25;2.92;;;16.20;99.90;;;;;;5059387;28;20039;-69
2023/06/02 08:53:03;;;;;;;6.50;2.72;;;16.20;99.90;;;;;;5059662;28;20039;-70
2023/06/02 08:55:29;;;;;;;8.27;3.05;;;16.20;99.90;;;;;;5055557;28;20029;-70
2023/06/02 08:57:55;;;;;;;8.50;3.28;;;16.20;99.90;;;;;;5055537;28;20029;-68
2023/06/02 09:00:23;;;;;;;9.95;3.13;;;16.40;99.90;;;;;;5059024;28;20029;-69
2023/06/02 09:02:49;;;;;;;9.13;3.60;;;16.60;99.90;;;;;;5055847;28;20049;-68
2023/06/02 09:05:16;;;;;;;11.05;3.90;;;16.80;99.90;;;;;;5057826;28;20047;-68
2023/06/02 09:07:43;;;;;;;11.63;3.40;;;16.80;99.90;;;;;;5055350;28;20092;-68
2023/06/02 09:10:09;;;;;;;11.45;3.50;;;16.70;99.90;;;;;;5055844;28;20032;-68
2023/06/02 09:12:48;;;;;;;13.65;3.53;;;16.70;99.90;;;;;;5058120;28;20033;-68
2023/06/02 09:15:14;;;;;;;11.65;4.00;;;16.80;99.90;;;;;;5058057;28;20045;-70
2023/06/02 09:17:39;;;;;;;11.15;3.72;;;17.00;99.90;;;;;;5057086;28;20017;-68
2023/06/02 09:20:11;;;;;;;13.95;3.80;;;16.90;99.90;;;;;;5057139;28;20021;-70
2023/06/02 09:22:58;;;;;;;10.57;3.95;;;17.10;99.90;;;;;;5056520;28;20694;-69
2023/06/02 09:25:28;;;;;;;9.85;3.90;;;17.20;99.90;;;;;;5053807;28;20052;-68
2023/06/02 09:27:56;;;;;;;14.65;4.47;;;17.40;99.90;;;;;;5056402;28;20033;-69
2023/06/02 09:30:23;;;;;;;16.40;4.35;;;17.60;99.90;;;;;;5055711;28;20133;-69
2023/06/02 09:32:53;;;;;;;15.57;4.65;;;17.80;99.90;;;;;;5057442;28;20530;-70
2023/06/02 09:35:35;;;;;;;13.55;5.13;;;17.80;99.90;;;;;;5057499;28;20035;-68
2023/06/02 09:38:01;;;;;;;12.15;4.40;;;17.90;99.90;;;;;;5058240;28;20021;-68
2023/06/02 09:40:28;;;;;;;11.38;4.18;;;17.90;99.90;;;;;;5057964;28;20020;-70
2023/06/02 09:42:54;;;;;;;10.85;4.70;;;18.00;99.90;;;;;;5057474;28;20079;-69
2023/06/02 09:45:19;;;;;;;12.05;4.72;;;18.10;99.90;;;;;;5058506;28;20045;-70
2023/06/02 09:47:47;;;;;;;11.30;4.68;;;18.00;99.90;;;;;;5057234;28;20061;-70
2023/06/02 09:50:31;;;;;;;11.00;4.47;;;18.00;99.90;;;;;;5057849;28;20204;-68
2023/06/02 09:53:01;;;;;;;10.73;4.35;;;17.80;99.90;;;;;;5058516;28;20063;-69
2023/06/02 09:55:28;;;;;;;12.10;4.45;;;17.90;99.90;;;;;;5056944;28;20032;-70
2023/06/02 09:57:55;;;;;;;16.33;4.22;;;17.90;99.90;;;;;;5055231;28;20153;-68
2023/06/02 10:00:22;;;;;;;11.30;5.30;;;17.80;99.90;;;;;;5053790;28;20019;-68
2023/06/02 10:02:47;;;;;;;11.13;4.63;;;17.80;99.90;;;;;;5056949;28;20018;-68
2023/06/02 10:05:16;;;;;;;11.18;4.40;;;17.80;99.90;;;;;;5055955;28;20459;-70
2023/06/02 10:08:16;;;;;;;15.10;4.40;;;17.70;99.90;;;;;;5057559;28;20055;-69
2023/06/02 10:10:55;;;;;;;15.45;4.45;;;17.70;99.90;;;;;;5056170;28;20047;-68
2023/06/02 10:13:26;;;;;;;13.68;5.10;;;17.60;99.90;;;;;;5056246;28;20397;-70
2023/06/02 10:15:55;;;;;;;11.88;4.72;;;17.60;99.90;;;;;;5055048;28;20025;-71
2023/06/02 10:18:49;;;;;;;14.25;5.10;;;17.40;99.90;;;;;;5054227;28;20131;-69
2023/06/02 10:21:49;;;;;;;11.10;5.27;;;17.30;99.90;;;;;;5057870;28;20024;-68
2023/06/02 10:24:21;;;;;;;11.52;4.57;;;17.20;99.90;;;;;;5054225;28;20029;-69
2023/06/02 10:26:52;;;;;;;16.60;6.05;;;17.20;99.90;;;;;;5055528;28;20406;-68
2023/06/02 10:29:18;;;;;;;10.25;5.28;;;17.30;99.90;;;;;;5057365;28;20097;-68
2023/06/02 10:31:44;;;;;;;9.15;5.40;;;17.40;99.90;;;;;;5052093;28;20078;-68
2023/06/02 10:34:37;;;;;;;10.82;5.10;;;17.50;99.90;;;;;;5050557;28;20065;-69
2023/06/02 10:37:13;;;;;;;17.67;5.57;;;17.70;99.90;;;;;;5055881;28;20040;-69
2023/06/02 10:39:39;;;;;;;18.58;5.43;;;17.90;99.90;;;;;;5057750;28;20025;-69
2023/06/02 10:42:12;;;;;;;17.17;6.05;;;18.00;99.90;;;;;;5056451;28;20036;-68
2023/06/02 10:44:38;;;;;;;12.47;5.57;;;18.20;99.90;;;;;;5058634;28;20025;-69
2023/06/02 10:47:18;;;;;;;12.20;5.20;;;18.20;99.90;;;;;;5061298;28;20032;-70
2023/06/02 10:50:01;;;;;;;12.27;5.13;;;18.20;99.90;;;;;;5059177;28;20627;-68
2023/06/02 10:52:31;;;;;;;10.60;4.70;;;18.30;99.90;;;;;;5060634;28;20041;-70
2023/06/02 10:55:12;;;;;;;12.55;5.35;;;18.30;99.90;;;;;;5061764;28;20055;-70
2023/06/02 10:57:57;;;;;;;13.75;4.90;;;18.40;99.90;;;;;;5062257;28;20021;-69
2023/06/02 11:00:32;;;;;;;8.93;4.40;;;18.40;99.90;;;;;;5061330;28;20489;-69
2023/06/02 11:02:58;;;;;;;11.18;4.80;;;18.50;99.90;;;;;;5061585;28;20032;-72
2023/06/02 11:05:32;;;;;;;10.75;5.28;;;18.50;99.90;;;;;;5061848;28;20044;-70
2023/06/02 11:08:14;;;;;;;10.33;4.60;;;18.50;99.90;;;;;;5062056;28;20021;-71
2023/06/02 11:10:44;;;;;;;14.23;4.93;;;18.40;99.90;;;;;;5063509;28;20273;-68
2023/06/02 11:13:11;;;;;;;13.93;5.28;;;18.30;99.90;;;;;;5062986;28;20044;-69
2023/06/02 11:15:36;;;;;;;14.68;5.55;;;18.20;99.90;;;;;;5062977;28;20082;-69
2023/06/02 11:21:15;;;;;;;9.50;4.85;;;18.00;99.90;;;;;;5063535;28;20048;-70
2023/06/02 11:23:44;;;;;;;14.35;4.85;;;17.90;99.90;;;;;;5062914;28;20509;-69
2023/06/02 11:26:15;;;;;;;14.52;4.88;;;17.80;99.90;;;;;;5062965;28;20100;-70
2023/06/02 11:28:41;;;;;;;10.85;4.38;;;17.80;99.90;;;;;;5061140;28;20077;-70
2023/06/02 11:31:15;;;;;;;12.43;5.20;;;17.80;99.90;;;;;;5061594;28;20025;-68
2023/06/02 11:33:48;;;;;;;12.75;5.05;;;17.90;99.90;;;;;;5063157;28;20026;-68
2023/06/02 11:36:15;;;;;;;11.60;5.20;;;17.90;99.90;;;;;;5061710;28;20029;-68
2023/06/02 11:38:41;;;;;;;10.50;5.07;;;18.00;99.90;;;;;;5062899;28;20029;-69
2023/06/02 11:41:14;;;;;;;12.77;6.07;;;18.10;99.90;;;;;;5060590;28;20040;-69
2023/06/02 11:43:45;;;;;;;11.95;5.07;;;18.10;99.90;;;;;;5062736;28;20031;-68
2023/06/02 11:46:16;;;;;;;9.55;5.00;;;18.40;99.90;;;;;;5060439;28;20112;-69
2023/06/02 11:48:43;;;;;;;12.88;5.68;;;18.70;99.90;;;;;;5058879;28;20469;-67
2023/06/02 11:51:09;;;;;;;12.85;5.40;;;19.10;99.90;;;;;;5062067;28;20064;-69
2023/06/02 11:53:44;;;;;;;18.42;5.63;;;19.30;99.90;;;;;;5063077;28;20025;-70
2023/06/02 11:56:10;;;;;;;14.93;6.07;;;19.60;99.90;;;;;;5062509;28;20080;-70
2023/06/02 11:58:46;;;;;;;13.95;5.82;;;19.80;99.90;;;;;;5062530;28;20093;-69
2023/06/02 12:01:15;;;;;;;15.60;6.32;;;19.90;99.90;;;;;;5063326;28;20442;-69
2023/06/02 12:04:01;;;;;;;13.07;5.50;;;19.90;99.90;;;;;;5061266;28;20036;-71
2023/06/02 12:06:27;;;;;;;15.73;6.13;;;19.70;99.90;;;;;;5062681;28;20053;-71
2023/06/02 12:09:12;;;;;;;20.92;7.50;;;19.50;99.90;;;;;;5062933;28;20032;-70
2023/06/02 12:11:38;;;;;;;33.42;11.18;;;19.30;99.90;;;;;;5061896;28;20035;-70
2023/06/02 12:14:06;;;;;;;22.08;8.57;;;19.20;99.90;;;;;;5062566;28;20115;-69
2023/06/02 12:16:34;;;;;;;14.98;5.55;;;19.30;99.90;;;;;;5061743;28;20017;-68
2023/06/02 12:19:17;;;;;;;10.48;4.53;;;19.40;99.90;;;;;;5061970;28;20031;-70
2023/06/02 12:21:46;;;;;;;10.40;3.90;;;19.70;99.90;;;;;;5062387;28;20036;-69
2023/06/02 12:24:30;;;;;;;8.77;4.70;;;19.80;99.90;;;;;;5062017;28;20040;-70
2023/06/02 12:26:56;;;;;;;;;;;19.90;99.90;;;;;;5062538;28;20466;-70
2023/06/02 12:29:21;;;;;;;9.77;4.40;;;19.90;99.90;;;;;;5062498;28;19951;-68
2023/06/02 12:31:47;;;;;;;15.90;5.35;;;19.90;99.90;;;;;;5062194;28;20033;-69
2023/06/02 12:34:12;;;;;;;12.10;4.30;;;19.70;99.90;;;;;;5061849;28;20032;-69
2023/06/02 12:36:38;;;;;;;10.82;5.15;;;19.70;99.90;;;;;;5061043;28;20485;-69
2023/06/02 12:39:04;;;;;;;8.88;4.07;;;19.60;99.90;;;;;;5061535;28;20055;-67
2023/06/02 12:41:31;;;;;;;11.45;4.10;;;19.60;99.90;;;;;;5061599;28;20040;-69
2023/06/02 12:43:56;;;;;;;11.95;4.07;;;19.90;99.90;;;;;;5062312;28;20021;-70